Time;durP1;ratioP1;P1;durP2;ratioP2;P2;SDS_P1;SDS_P2;PMS_P1;PMS_P2;Temp;Humidity;BMP_temperature;BMP_pressure;BME280_temperature;BME280_humidity;BME280_pressure;Samples;Min_cycle;Max_cycle;Signal;HPM_P1;HPM_P2
2024/01/27 00:01:32;;;;;;;25.85;3.20;;;3.30;99.90;;;;;;4974167;28;20047;-74
2024/01/27 00:03:58;;;;;;;14.55;3.10;;;3.30;99.90;;;;;;4974665;28;20465;-73
2024/01/27 00:06:23;;;;;;;12.90;2.38;;;3.30;99.90;;;;;;4974665;28;20492;-74
2024/01/27 00:08:49;;;;;;;10.98;2.25;;;3.30;99.90;;;;;;4975018;28;20069;-73
2024/01/27 00:11:15;;;;;;;13.90;1.92;;;3.30;99.90;;;;;;4965966;28;20038;-73
2024/01/27 00:13:40;;;;;;;9.13;1.48;;;3.20;99.90;;;;;;4952862;28;20398;-74
2024/01/27 00:16:06;;;;;;;12.35;2.60;;;3.20;99.90;;;;;;4969960;28;20027;-75
2024/01/27 00:18:32;;;;;;;10.65;2.67;;;3.20;99.90;;;;;;4978396;28;20034;-74
2024/01/27 00:20:57;;;;;;;7.70;2.13;;;3.20;99.90;;;;;;4985881;28;20038;-74
2024/01/27 00:23:23;;;;;;;13.88;2.85;;;3.20;99.90;;;;;;4952302;28;20061;-74
2024/01/27 00:25:48;;;;;;;14.02;2.90;;;3.20;99.90;;;;;;4975065;28;20043;-73
2024/01/27 00:28:14;;;;;;;23.73;3.88;;;3.20;99.90;;;;;;4958999;28;20402;-74
2024/01/27 00:30:39;;;;;;;14.90;2.42;;;3.20;99.90;;;;;;4986002;28;20037;-74
2024/01/27 00:33:05;;;;;;;13.00;2.47;;;3.20;99.90;;;;;;4976753;28;20581;-74
2024/01/27 00:35:30;;;;;;;7.82;1.67;;;3.20;99.90;;;;;;4953365;28;20053;-74
2024/01/27 00:37:56;;;;;;;6.63;1.48;;;3.20;99.90;;;;;;4956747;28;20050;-74
2024/01/27 00:40:22;;;;;;;15.80;2.20;;;3.20;99.90;;;;;;4959718;28;20715;-73
2024/01/27 00:42:48;;;;;;;8.60;2.75;;;3.20;99.90;;;;;;4962969;28;20066;-74
2024/01/27 00:45:13;;;;;;;11.93;1.58;;;3.10;99.90;;;;;;4968305;28;20113;-73
2024/01/27 00:47:39;;;;;;;11.98;2.35;;;3.10;99.90;;;;;;4959743;28;20040;-74
2024/01/27 00:50:05;;;;;;;10.07;2.10;;;3.10;99.90;;;;;;4974670;28;20046;-74
2024/01/27 00:52:31;;;;;;;10.18;1.67;;;3.10;99.90;;;;;;4952367;28;20030;-75
2024/01/27 00:54:57;;;;;;;11.05;2.40;;;3.10;99.90;;;;;;4960111;28;20034;-73
2024/01/27 00:57:22;;;;;;;18.10;3.15;;;3.00;99.90;;;;;;4980216;28;20030;-74
2024/01/27 00:59:48;;;;;;;8.52;1.77;;;3.00;99.90;;;;;;4963889;28;20038;-73
2024/01/27 01:02:13;;;;;;;8.75;1.65;;;3.00;99.90;;;;;;4972978;28;20046;-74
2024/01/27 01:04:39;;;;;;;13.73;1.30;;;3.00;99.90;;;;;;4962899;28;20057;-75
2024/01/27 01:07:04;;;;;;;12.10;1.58;;;3.00;99.90;;;;;;4964604;28;20062;-74
2024/01/27 01:09:30;;;;;;;15.27;2.63;;;3.00;99.90;;;;;;4962776;28;20034;-75
2024/01/27 01:11:55;;;;;;;13.98;3.08;;;3.00;99.90;;;;;;4951309;28;20035;-73
2024/01/27 01:14:21;;;;;;;10.90;2.45;;;3.00;99.90;;;;;;4959584;28;20046;-74
2024/01/27 01:16:46;;;;;;;11.23;1.85;;;3.00;99.90;;;;;;4974893;28;20068;-74
2024/01/27 01:19:12;;;;;;;10.45;1.98;;;3.00;99.90;;;;;;4971620;28;20046;-74
2024/01/27 01:21:37;;;;;;;30.02;2.55;;;3.00;99.90;;;;;;4956323;28;20045;-74
2024/01/27 01:24:03;;;;;;;19.35;2.72;;;2.90;99.90;;;;;;4964940;28;20050;-73
2024/01/27 01:26:29;;;;;;;8.80;2.53;;;2.90;99.90;;;;;;4979092;28;20474;-74
2024/01/27 01:28:54;;;;;;;14.02;3.13;;;2.90;99.90;;;;;;4974773;28;20042;-74
2024/01/27 01:31:20;;;;;;;13.82;2.55;;;2.90;99.90;;;;;;4959220;28;20101;-73
2024/01/27 01:33:45;;;;;;;10.20;2.65;;;2.90;99.90;;;;;;4968937;28;20043;-75
2024/01/27 01:36:11;;;;;;;5.90;1.23;;;2.90;99.90;;;;;;4959947;28;20031;-74
2024/01/27 01:38:36;;;;;;;15.25;1.73;;;2.90;99.90;;;;;;4965023;28;20042;-73
2024/01/27 01:41:02;;;;;;;12.50;1.95;;;2.90;99.90;;;;;;4977696;28;20470;-74
2024/01/27 01:43:27;;;;;;;16.40;1.75;;;2.90;99.90;;;;;;4960634;28;20058;-73
2024/01/27 01:45:53;;;;;;;10.98;1.63;;;2.90;99.90;;;;;;4960423;28;20046;-74
2024/01/27 01:48:20;;;;;;;10.65;1.65;;;2.90;99.90;;;;;;4973561;28;20039;-74
2024/01/27 01:50:46;;;;;;;13.00;2.58;;;2.80;99.90;;;;;;4959830;28;20101;-74
2024/01/27 01:53:13;;;;;;;16.20;1.90;;;2.80;99.90;;;;;;4968672;28;20043;-74
2024/01/27 01:55:39;;;;;;;10.23;1.80;;;2.80;99.90;;;;;;4960492;28;20045;-74
2024/01/27 01:58:06;;;;;;;16.75;1.85;;;2.80;99.90;;;;;;4961218;28;20169;-74
2024/01/27 02:00:32;;;;;;;16.35;3.30;;;2.80;99.90;;;;;;4960045;28;20042;-74
2024/01/27 02:02:57;;;;;;;11.60;1.42;;;2.80;99.90;;;;;;4965200;28;20034;-74
2024/01/27 02:05:23;;;;;;;12.82;1.20;;;2.80;99.90;;;;;;4955015;28;20033;-73
2024/01/27 02:07:49;;;;;;;16.55;2.30;;;2.80;99.90;;;;;;4962346;28;20030;-74
2024/01/27 02:10:16;;;;;;;7.22;2.03;;;2.70;99.90;;;;;;4957431;28;20034;-74
2024/01/27 02:12:43;;;;;;;8.60;1.75;;;2.70;99.90;;;;;;4979421;28;20031;-74
2024/01/27 02:15:13;;;;;;;12.20;1.88;;;2.70;99.90;;;;;;4962709;28;20038;-74
2024/01/27 02:17:42;;;;;;;12.85;1.85;;;2.70;99.90;;;;;;4948501;28;20187;-74
2024/01/27 02:20:08;;;;;;;6.38;1.25;;;2.70;99.90;;;;;;4955771;28;20042;-74
2024/01/27 02:22:37;;;;;;;12.73;1.83;;;2.70;99.90;;;;;;4984862;28;20595;-73
2024/01/27 02:25:03;;;;;;;18.60;3.15;;;2.80;99.90;;;;;;4981022;28;20045;-74
2024/01/27 02:27:28;;;;;;;16.45;2.17;;;2.80;99.90;;;;;;4978814;28;20030;-74
2024/01/27 02:29:54;;;;;;;6.55;1.83;;;2.70;99.90;;;;;;4957644;28;20046;-74
2024/01/27 02:32:20;;;;;;;10.43;1.80;;;2.70;99.90;;;;;;4977209;28;20037;-74
2024/01/27 02:34:45;;;;;;;15.40;2.00;;;2.70;99.90;;;;;;4980297;28;20053;-74
2024/01/27 02:37:11;;;;;;;17.60;2.13;;;2.70;99.90;;;;;;4964405;28;20035;-75
2024/01/27 02:39:37;;;;;;;13.43;1.73;;;2.70;99.90;;;;;;4961943;28;20039;-75
2024/01/27 02:42:03;;;;;;;6.68;1.45;;;2.70;99.90;;;;;;4977062;28;20045;-74
2024/01/27 02:44:28;;;;;;;13.05;2.17;;;2.70;99.90;;;;;;4972081;28;20118;-74
2024/01/27 02:46:54;;;;;;;14.20;1.42;;;2.70;99.90;;;;;;4971388;28;20495;-74
2024/01/27 02:49:19;;;;;;;6.50;1.20;;;2.70;99.90;;;;;;4967188;28;20045;-73
2024/01/27 02:51:45;;;;;;;17.42;2.28;;;2.70;99.90;;;;;;4950147;28;20042;-74
2024/01/27 02:54:10;;;;;;;15.13;2.25;;;2.70;99.90;;;;;;4962633;28;20030;-74
2024/01/27 02:56:36;;;;;;;15.20;2.33;;;2.70;99.90;;;;;;4966347;28;20030;-73
2024/01/27 02:59:02;;;;;;;11.88;2.05;;;2.60;99.90;;;;;;4967982;28;20039;-73
2024/01/27 03:01:28;;;;;;;10.80;1.25;;;2.60;99.90;;;;;;4943838;28;20027;-74
2024/01/27 03:03:53;;;;;;;15.45;1.60;;;2.60;99.90;;;;;;4960216;28;20088;-74
2024/01/27 03:06:19;;;;;;;14.82;1.92;;;2.60;99.90;;;;;;4958133;28;20078;-73
2024/01/27 03:08:44;;;;;;;8.40;1.10;;;2.60;99.90;;;;;;4966803;28;20762;-74
2024/01/27 03:11:10;;;;;;;8.82;1.48;;;2.60;99.90;;;;;;4975671;28;20574;-73
2024/01/27 03:13:36;;;;;;;18.63;2.80;;;2.60;99.90;;;;;;4969983;28;20058;-73
2024/01/27 03:16:02;;;;;;;6.28;1.30;;;2.60;99.90;;;;;;4987900;28;20403;-74
2024/01/27 03:18:27;;;;;;;11.00;2.05;;;2.60;99.90;;;;;;4966956;28;20043;-74
2024/01/27 03:20:53;;;;;;;9.02;1.17;;;2.60;99.90;;;;;;4959190;28;20049;-74
2024/01/27 03:23:18;;;;;;;13.70;1.70;;;2.60;99.90;;;;;;4949475;28;20039;-74
2024/01/27 03:25:44;;;;;;;11.32;2.75;;;2.60;99.90;;;;;;4975609;28;20082;-74
2024/01/27 03:28:09;;;;;;;4.82;1.27;;;2.60;99.90;;;;;;4975698;28;20045;-74
2024/01/27 03:30:35;;;;;;;10.27;1.83;;;2.60;99.90;;;;;;4958982;28;20027;-74
2024/01/27 03:33:00;;;;;;;15.95;1.45;;;2.50;99.90;;;;;;4960665;28;20479;-74
2024/01/27 03:35:27;;;;;;;7.95;1.75;;;2.60;99.90;;;;;;4960433;28;20030;-74
2024/01/27 03:37:52;;;;;;;13.55;2.78;;;2.50;99.90;;;;;;4955002;28;20038;-74
2024/01/27 03:40:18;;;;;;;10.93;2.72;;;2.50;99.90;;;;;;4982899;28;20589;-74
2024/01/27 03:42:43;;;;;;;12.25;1.90;;;2.50;99.90;;;;;;4973029;28;20545;-73
2024/01/27 03:45:09;;;;;;;11.05;1.77;;;2.50;99.90;;;;;;4958946;28;20046;-74
2024/01/27 03:47:34;;;;;;;14.35;2.65;;;2.50;99.90;;;;;;4976513;28;20542;-74
2024/01/27 03:50:00;;;;;;;7.50;1.65;;;2.50;99.90;;;;;;4952505;28;20066;-74
2024/01/27 03:52:26;;;;;;;12.48;2.17;;;2.50;99.90;;;;;;4977313;28;20031;-74
2024/01/27 03:54:51;;;;;;;9.60;2.75;;;2.50;99.90;;;;;;4959861;28;20065;-74
2024/01/27 03:57:17;;;;;;;22.00;2.45;;;2.50;99.90;;;;;;4959698;28;20477;-75
2024/01/27 03:59:42;;;;;;;7.10;1.38;;;2.50;99.90;;;;;;4955020;28;20042;-74
2024/01/27 04:02:08;;;;;;;15.05;1.88;;;2.50;99.90;;;;;;4956653;28;20100;-74
2024/01/27 04:04:34;;;;;;;12.35;2.17;;;2.50;99.90;;;;;;4955795;28;20380;-74
2024/01/27 04:07:01;;;;;;;12.48;3.13;;;2.50;99.90;;;;;;4964022;28;20045;-74
2024/01/27 04:09:27;;;;;;;10.18;2.72;;;2.50;99.90;;;;;;4974611;28;20030;-76
2024/01/27 04:11:52;;;;;;;9.35;2.30;;;2.50;99.90;;;;;;4960140;28;20046;-74
2024/01/27 04:14:18;;;;;;;8.00;2.47;;;2.50;99.90;;;;;;4962182;28;20478;-74
2024/01/27 04:16:43;;;;;;;12.77;2.85;;;2.50;99.90;;;;;;4953739;28;20399;-74
2024/01/27 04:19:09;;;;;;;12.68;2.42;;;2.50;99.90;;;;;;4956714;28;20442;-74
2024/01/27 04:21:34;;;;;;;15.18;2.78;;;2.50;99.90;;;;;;4952721;28;20130;-76
2024/01/27 04:24:00;;;;;;;9.75;3.08;;;2.40;99.90;;;;;;4983977;28;20463;-76
2024/01/27 04:26:25;;;;;;;15.25;3.90;;;2.40;99.90;;;;;;4957034;28;20724;-75
2024/01/27 04:28:51;;;;;;;12.50;2.45;;;2.40;99.90;;;;;;4957833;28;20576;-73
2024/01/27 04:31:16;;;;;;;18.00;3.78;;;2.40;99.90;;;;;;4960634;28;20066;-74
2024/01/27 04:33:42;;;;;;;16.90;3.83;;;2.40;99.90;;;;;;4953578;28;20588;-75
2024/01/27 04:36:09;;;;;;;12.00;3.50;;;2.40;99.90;;;;;;4976684;28;20053;-74
2024/01/27 04:38:35;;;;;;;17.27;3.88;;;2.30;99.90;;;;;;4988219;28;20034;-74
2024/01/27 04:41:01;;;;;;;13.45;3.05;;;2.30;99.90;;;;;;4962101;28;20047;-75
2024/01/27 04:43:26;;;;;;;9.25;2.35;;;2.30;99.90;;;;;;4961654;28;20487;-74
2024/01/27 04:45:52;;;;;;;9.88;3.17;;;2.30;99.90;;;;;;4953151;28;20109;-74
2024/01/27 04:48:17;;;;;;;13.95;3.78;;;2.30;99.90;;;;;;4985808;28;20030;-74
2024/01/27 04:50:43;;;;;;;9.63;3.30;;;2.30;99.90;;;;;;4962308;28;20398;-75
2024/01/27 04:53:08;;;;;;;9.23;2.58;;;2.30;99.90;;;;;;4958795;28;20479;-74
2024/01/27 04:55:34;;;;;;;21.15;4.13;;;2.30;99.90;;;;;;4961618;28;20459;-74
2024/01/27 04:58:00;;;;;;;20.90;3.65;;;2.30;99.90;;;;;;4955119;28;20487;-74
2024/01/27 05:00:27;;;;;;;10.05;3.47;;;2.30;99.90;;;;;;4982300;28;20038;-74
2024/01/27 05:02:53;;;;;;;8.07;2.65;;;2.30;99.90;;;;;;4959688;28;20570;-74
2024/01/27 05:05:19;;;;;;;10.02;3.63;;;2.30;99.90;;;;;;4958914;28;20130;-74
2024/01/27 05:07:44;;;;;;;16.88;3.58;;;2.30;99.90;;;;;;4968418;28;20057;-75
2024/01/27 05:10:14;;;;;;;9.20;2.90;;;2.20;99.90;;;;;;4971786;28;20131;-74
2024/01/27 05:12:40;;;;;;;11.77;3.05;;;2.20;99.90;;;;;;4979581;28;20399;-74
2024/01/27 05:15:06;;;;;;;13.77;3.97;;;2.20;99.90;;;;;;4959933;28;20030;-74
2024/01/27 05:17:31;;;;;;;12.65;3.53;;;2.20;99.90;;;;;;4959835;28;20149;-74
2024/01/27 05:19:58;;;;;;;12.82;2.90;;;2.20;99.90;;;;;;4952088;28;20030;-74
2024/01/27 05:22:23;;;;;;;14.45;3.45;;;2.10;99.90;;;;;;4974510;28;20071;-74
2024/01/27 05:24:49;;;;;;;14.45;3.95;;;2.10;99.90;;;;;;4971645;28;20047;-74
2024/01/27 05:27:14;;;;;;;12.15;3.38;;;2.20;99.90;;;;;;4971991;28;20086;-75
2024/01/27 05:29:40;;;;;;;18.88;3.55;;;2.20;99.90;;;;;;4955341;28;20499;-74
2024/01/27 05:32:06;;;;;;;19.30;4.38;;;2.20;99.90;;;;;;4972486;28;20089;-73
2024/01/27 05:34:31;;;;;;;23.08;6.05;;;2.20;99.90;;;;;;4952850;28;20049;-74
2024/01/27 05:36:57;;;;;;;16.30;3.63;;;2.20;99.90;;;;;;4952941;28;20061;-74
2024/01/27 05:39:22;;;;;;;14.02;3.28;;;2.20;99.90;;;;;;4973064;28;20041;-74
2024/01/27 05:41:48;;;;;;;16.73;4.60;;;2.20;99.90;;;;;;4947654;28;20045;-75
2024/01/27 05:44:13;;;;;;;17.48;3.78;;;2.20;99.90;;;;;;4951420;28;20042;-74
2024/01/27 05:46:39;;;;;;;13.98;4.47;;;2.20;99.90;;;;;;4952768;28;20500;-74
2024/01/27 05:49:04;;;;;;;12.20;3.67;;;2.20;99.90;;;;;;4972005;28;20027;-74
2024/01/27 05:51:30;;;;;;;12.07;3.60;;;2.20;99.90;;;;;;4972485;28;20778;-74
2024/01/27 05:53:56;;;;;;;17.27;4.00;;;2.20;99.90;;;;;;4961455;28;20031;-74
2024/01/27 05:56:22;;;;;;;13.00;4.00;;;2.20;99.90;;;;;;4978245;28;20042;-75
2024/01/27 05:58:48;;;;;;;16.20;3.65;;;2.20;99.90;;;;;;4962155;28;20136;-75
2024/01/27 06:01:14;;;;;;;17.30;4.75;;;2.20;99.90;;;;;;4971536;28;20023;-74
2024/01/27 06:03:43;;;;;;;16.08;4.13;;;2.20;99.90;;;;;;4961557;28;20030;-74
2024/01/27 06:06:09;;;;;;;16.52;4.35;;;2.20;99.90;;;;;;4954130;28;20069;-74
2024/01/27 06:08:35;;;;;;;22.65;4.20;;;2.20;99.90;;;;;;4952054;28;20134;-74
2024/01/27 06:11:00;;;;;;;14.52;5.20;;;2.20;99.90;;;;;;4961053;28;20027;-75
2024/01/27 06:13:26;;;;;;;13.48;4.07;;;2.20;99.90;;;;;;4954917;28;20473;-75
2024/01/27 06:15:52;;;;;;;10.50;4.03;;;2.20;99.90;;;;;;4959208;28;20529;-74
2024/01/27 06:18:17;;;;;;;15.13;4.28;;;2.20;99.90;;;;;;4951854;28;20039;-74
2024/01/27 06:20:44;;;;;;;14.60;4.03;;;2.20;99.90;;;;;;4951381;28;20053;-74
2024/01/27 06:23:09;;;;;;;14.55;3.92;;;2.10;99.90;;;;;;4951600;28;20126;-74
2024/01/27 06:25:35;;;;;;;16.83;3.78;;;2.10;99.90;;;;;;4950990;28;20794;-75
2024/01/27 06:28:00;;;;;;;12.18;3.40;;;2.10;99.90;;;;;;4968607;28;20042;-75
2024/01/27 06:30:26;;;;;;;16.27;3.70;;;2.10;99.90;;;;;;4976184;28;20114;-75
2024/01/27 06:32:52;;;;;;;16.77;4.82;;;2.10;99.90;;;;;;4956441;28;20035;-74
2024/01/27 06:35:17;;;;;;;9.23;3.17;;;2.10;99.90;;;;;;4959936;28;20045;-74
2024/01/27 06:37:43;;;;;;;27.35;4.15;;;2.10;99.90;;;;;;4959580;28;20897;-74
2024/01/27 06:40:09;;;;;;;14.18;3.53;;;2.00;99.90;;;;;;4959929;28;20054;-73
2024/01/27 06:42:35;;;;;;;16.10;4.22;;;2.10;99.90;;;;;;4973546;28;20067;-74
2024/01/27 06:45:01;;;;;;;19.23;4.57;;;2.00;99.90;;;;;;4953649;28;20503;-75
2024/01/27 06:47:26;;;;;;;13.23;3.38;;;2.10;99.90;;;;;;4959946;28;20113;-74
2024/01/27 06:49:52;;;;;;;15.32;3.83;;;2.00;99.90;;;;;;4960314;28;20058;-74
2024/01/27 06:52:17;;;;;;;16.77;4.72;;;2.00;99.90;;;;;;4978908;28;20035;-74
2024/01/27 06:54:44;;;;;;;9.45;3.90;;;2.00;99.90;;;;;;4957282;28;20118;-76
2024/01/27 06:57:29;;;;;;;16.90;4.65;;;2.00;99.90;;;;;;4954769;28;20517;-73
2024/01/27 06:59:58;;;;;;;25.52;4.60;;;2.00;99.90;;;;;;4975087;28;20039;-74
2024/01/27 07:02:28;;;;;;;15.07;4.15;;;2.00;99.90;;;;;;4952276;28;20557;-75
2024/01/27 07:04:54;;;;;;;10.95;3.72;;;2.00;99.90;;;;;;4968746;28;20051;-75
2024/01/27 07:07:26;;;;;;;10.40;3.85;;;1.90;99.90;;;;;;4961833;28;20041;-74
2024/01/27 07:09:54;;;;;;;13.65;4.55;;;1.90;99.90;;;;;;4951904;28;20042;-74
2024/01/27 07:12:20;;;;;;;11.57;4.80;;;1.90;99.90;;;;;;4956560;28;20042;-75
2024/01/27 07:14:45;;;;;;;12.88;5.03;;;1.90;99.90;;;;;;4957815;28;20045;-74
2024/01/27 07:17:11;;;;;;;17.65;4.68;;;1.90;99.90;;;;;;4968480;28;20036;-73
2024/01/27 07:19:36;;;;;;;11.32;4.72;;;1.90;99.90;;;;;;4951614;28;20038;-74
2024/01/27 07:22:03;;;;;;;13.70;5.35;;;1.90;99.90;;;;;;4951632;28;20062;-74
2024/01/27 07:24:29;;;;;;;13.40;5.07;;;1.90;99.90;;;;;;4966948;28;20031;-75
2024/01/27 07:26:55;;;;;;;13.95;4.00;;;1.90;99.90;;;;;;4980515;28;20109;-73
2024/01/27 07:29:20;;;;;;;15.10;3.90;;;1.90;99.90;;;;;;4957275;28;20031;-74
2024/01/27 07:31:46;;;;;;;16.33;5.63;;;1.90;99.90;;;;;;4971160;28;20038;-73
2024/01/27 07:34:12;;;;;;;19.70;3.97;;;1.90;99.90;;;;;;4957359;28;20046;-74
2024/01/27 07:36:37;;;;;;;10.40;4.28;;;1.90;99.90;;;;;;4970320;28;20039;-74
2024/01/27 07:39:04;;;;;;;17.15;4.65;;;2.00;99.90;;;;;;4953142;28;20101;-75
2024/01/27 07:41:30;;;;;;;10.63;4.00;;;2.00;99.90;;;;;;4976199;28;20446;-74
2024/01/27 07:43:56;;;;;;;20.48;4.80;;;2.00;99.90;;;;;;4974089;28;20031;-74
2024/01/27 07:46:22;;;;;;;19.52;5.00;;;2.00;99.90;;;;;;4952734;28;20042;-74
2024/01/27 07:48:49;;;;;;;15.27;5.63;;;2.10;99.90;;;;;;4949909;28;20066;-74
2024/01/27 07:51:15;;;;;;;17.00;5.60;;;2.10;99.90;;;;;;4967359;28;20023;-74
2024/01/27 07:53:41;;;;;;;19.90;5.32;;;2.10;99.90;;;;;;4974313;28;20043;-74
2024/01/27 07:56:07;;;;;;;11.45;4.55;;;2.10;99.90;;;;;;4974724;28;20041;-74
2024/01/27 07:58:33;;;;;;;13.68;4.25;;;2.10;99.90;;;;;;4965906;28;20127;-75
2024/01/27 08:00:59;;;;;;;16.45;5.15;;;2.10;99.90;;;;;;4957376;28;20031;-74
2024/01/27 08:03:25;;;;;;;15.63;4.18;;;2.20;99.90;;;;;;4957685;28;20045;-74
2024/01/27 08:05:50;;;;;;;12.85;4.75;;;2.20;99.90;;;;;;4945411;28;20043;-74
2024/01/27 08:08:16;;;;;;;11.15;4.28;;;2.20;99.90;;;;;;4967326;28;20035;-72
2024/01/27 08:10:41;;;;;;;12.13;3.92;;;2.20;99.90;;;;;;4970586;28;20057;-72
2024/01/27 08:13:07;;;;;;;12.05;3.70;;;2.20;99.90;;;;;;4958118;28;20033;-75
2024/01/27 08:15:33;;;;;;;21.85;4.55;;;2.20;99.90;;;;;;4969146;28;20030;-75
2024/01/27 08:17:58;;;;;;;16.13;5.10;;;2.30;99.90;;;;;;4958777;28;20039;-74
2024/01/27 08:20:24;;;;;;;16.75;4.50;;;2.30;99.90;;;;;;4986522;28;20035;-74
2024/01/27 08:22:51;;;;;;;14.77;4.53;;;2.30;99.90;;;;;;4971910;28;20458;-74
2024/01/27 08:25:17;;;;;;;29.13;4.90;;;2.40;99.90;;;;;;4977049;28;20035;-75
2024/01/27 08:27:43;;;;;;;13.48;4.85;;;2.40;99.90;;;;;;4957025;28;20039;-74
2024/01/27 08:30:09;;;;;;;17.05;4.68;;;2.40;99.90;;;;;;4961903;28;20109;-75
2024/01/27 08:32:35;;;;;;;20.13;5.55;;;2.40;99.90;;;;;;4981920;28;20088;-73
2024/01/27 08:35:01;;;;;;;16.95;5.78;;;2.40;99.90;;;;;;4969699;28;20043;-74
2024/01/27 08:37:27;;;;;;;11.30;4.25;;;2.50;99.90;;;;;;4964305;28;20026;-75
2024/01/27 08:39:52;;;;;;;13.38;5.45;;;2.50;99.90;;;;;;4958962;28;20480;-75
2024/01/27 08:42:18;;;;;;;19.73;4.95;;;2.60;99.90;;;;;;4961549;28;20030;-74
2024/01/27 08:44:44;;;;;;;22.83;4.97;;;2.60;99.90;;;;;;4963941;28;20558;-73
2024/01/27 08:47:09;;;;;;;15.35;4.07;;;2.60;99.90;;;;;;4978668;28;20395;-75
2024/01/27 08:49:35;;;;;;;10.95;4.00;;;2.70;99.90;;;;;;4952432;28;20110;-74
2024/01/27 08:52:01;;;;;;;16.52;4.00;;;2.70;99.90;;;;;;4967133;28;20030;-75
2024/01/27 08:54:26;;;;;;;11.73;4.22;;;2.80;99.90;;;;;;4968638;28;20054;-73
2024/01/27 08:56:52;;;;;;;19.17;4.57;;;2.80;99.90;;;;;;4957467;28;20039;-75
2024/01/27 08:59:17;;;;;;;12.60;3.83;;;3.00;99.90;;;;;;4964601;28;20022;-74
2024/01/27 09:01:43;;;;;;;12.38;4.97;;;3.00;99.90;;;;;;4947283;28;20062;-74
2024/01/27 09:04:09;;;;;;;13.25;5.32;;;3.10;99.90;;;;;;4956146;28;20027;-74
2024/01/27 09:06:34;;;;;;;11.40;4.82;;;3.30;99.90;;;;;;4956313;28;20483;-74
2024/01/27 09:09:00;;;;;;;17.38;5.25;;;3.40;99.90;;;;;;4969360;28;20070;-74
2024/01/27 09:11:30;;;;;;;16.80;5.22;;;3.50;99.90;;;;;;4958407;28;20125;-74
2024/01/27 09:13:56;;;;;;;16.20;5.50;;;3.50;99.90;;;;;;4975010;28;20117;-73
2024/01/27 09:16:22;;;;;;;12.27;5.22;;;3.60;99.90;;;;;;4953120;28;20030;-73
2024/01/27 09:18:50;;;;;;;19.33;4.78;;;3.70;99.90;;;;;;4965672;28;20035;-75
2024/01/27 09:21:20;;;;;;;12.30;4.82;;;3.80;99.90;;;;;;4967793;28;20061;-74
2024/01/27 09:23:46;;;;;;;19.42;5.13;;;3.90;99.90;;;;;;4951494;28;20038;-75
2024/01/27 09:26:12;;;;;;;13.23;4.05;;;3.90;99.90;;;;;;4978238;28;20470;-74
2024/01/27 09:28:38;;;;;;;16.63;5.10;;;4.00;99.90;;;;;;4964989;28;20034;-71
2024/01/27 09:31:04;;;;;;;11.10;4.55;;;4.00;99.90;;;;;;4956331;28;20065;-75
2024/01/27 09:33:29;;;;;;;12.98;4.00;;;4.10;99.90;;;;;;4977694;28;20033;-75
2024/01/27 09:35:55;;;;;;;11.82;5.03;;;4.20;99.90;;;;;;4956016;28;20126;-75
2024/01/27 09:38:21;;;;;;;26.92;5.18;;;4.30;99.90;;;;;;4971078;28;20072;-75
2024/01/27 09:40:46;;;;;;;19.27;5.07;;;4.30;99.90;;;;;;4977366;28;20045;-73
2024/01/27 09:43:14;;;;;;;12.10;5.30;;;4.30;99.90;;;;;;4961182;28;20466;-74
2024/01/27 09:45:40;;;;;;;18.05;5.10;;;4.40;99.90;;;;;;4961096;28;20047;-75
2024/01/27 09:48:08;;;;;;;23.70;6.22;;;4.40;99.90;;;;;;4953016;28;20039;-74
2024/01/27 09:50:34;;;;;;;19.52;5.85;;;4.50;99.90;;;;;;4975320;28;20061;-75
2024/01/27 09:53:07;;;;;;;18.70;5.88;;;4.60;99.90;;;;;;4963258;28;20486;-74
2024/01/27 09:55:33;;;;;;;16.95;5.78;;;4.70;99.90;;;;;;4975254;28;20073;-75
2024/01/27 09:57:59;;;;;;;18.38;7.70;;;4.70;99.90;;;;;;4970445;28;20062;-76
2024/01/27 10:00:25;;;;;;;11.27;4.40;;;4.70;99.90;;;;;;4964470;28;20114;-75
2024/01/27 10:02:52;;;;;;;24.20;6.50;;;4.80;99.90;;;;;;4970159;28;20125;-75
2024/01/27 10:05:18;;;;;;;20.40;6.40;;;4.90;99.90;;;;;;4978026;28;20066;-76
2024/01/27 10:07:44;;;;;;;17.63;4.47;;;4.90;99.90;;;;;;4951980;28;20045;-75
2024/01/27 10:10:10;;;;;;;14.02;4.47;;;5.00;99.90;;;;;;4963267;28;20034;-75
2024/01/27 10:12:42;;;;;;;12.73;4.28;;;5.00;99.90;;;;;;4971732;28;20452;-76
2024/01/27 10:15:22;;;;;;;16.05;4.30;;;5.10;99.90;;;;;;4971792;28;20030;-76
2024/01/27 10:17:48;;;;;;;14.90;4.35;;;5.20;99.90;;;;;;4964341;28;20050;-75
2024/01/27 10:20:18;;;;;;;16.10;3.78;;;5.20;99.90;;;;;;4974395;28;20038;-74
2024/01/27 10:22:45;;;;;;;20.23;4.70;;;5.20;99.90;;;;;;4972830;28;20046;-75
2024/01/27 10:25:11;;;;;;;19.13;4.95;;;5.30;99.90;;;;;;4960775;28;20045;-75
2024/01/27 10:27:37;;;;;;;21.73;6.05;;;5.30;99.90;;;;;;4969139;28;20026;-77
2024/01/27 10:30:03;;;;;;;13.57;4.47;;;5.40;99.90;;;;;;4969447;28;20122;-76
2024/01/27 10:32:29;;;;;;;23.63;6.20;;;5.40;99.90;;;;;;4951450;28;20027;-76
2024/01/27 10:35:03;;;;;;;11.20;4.75;;;5.40;99.90;;;;;;4984498;28;20049;-74
2024/01/27 10:37:28;;;;;;;12.63;4.07;;;5.50;99.90;;;;;;4962971;28;20034;-76
2024/01/27 10:40:05;;;;;;;17.13;4.20;;;5.60;99.90;;;;;;4975934;28;20045;-75
2024/01/27 10:42:31;;;;;;;7.88;4.03;;;5.60;99.90;;;;;;4962246;28;20054;-74
2024/01/27 10:44:59;;;;;;;19.70;5.03;;;5.60;99.90;;;;;;4971442;28;20046;-72
2024/01/27 10:47:29;;;;;;;29.70;5.43;;;5.70;99.90;;;;;;4951927;28;20118;-73
2024/01/27 10:49:59;;;;;;;12.27;3.97;;;5.70;99.90;;;;;;4960249;28;20034;-73
2024/01/27 10:52:32;;;;;;;14.90;4.60;;;5.80;99.90;;;;;;4987826;28;20497;-74
2024/01/27 10:55:03;;;;;;;8.70;4.05;;;5.90;99.90;;;;;;4955001;28;20042;-75
2024/01/27 10:57:33;;;;;;;17.05;4.95;;;5.90;99.90;;;;;;4950012;28;20035;-74
2024/01/27 11:00:01;;;;;;;16.90;4.25;;;5.90;99.90;;;;;;4957458;28;20045;-74
2024/01/27 11:02:32;;;;;;;13.82;5.15;;;5.90;99.90;;;;;;4951280;28;20061;-76
2024/01/27 11:04:58;;;;;;;14.63;4.82;;;6.00;99.90;;;;;;4968190;28;20066;-75
2024/01/27 11:07:24;;;;;;;14.52;3.78;;;6.10;99.90;;;;;;4970710;28;20035;-76
2024/01/27 11:09:53;;;;;;;20.63;4.10;;;6.20;99.90;;;;;;4968888;28;20031;-74
2024/01/27 11:12:21;;;;;;;15.80;3.90;;;6.30;99.90;;;;;;4950662;28;20574;-74
2024/01/27 11:14:47;;;;;;;16.75;3.75;;;6.40;99.90;;;;;;4958786;28;20129;-75
2024/01/27 11:17:13;;;;;;;20.33;5.18;;;6.50;99.90;;;;;;4947972;28;20123;-74
2024/01/27 11:19:40;;;;;;;23.45;3.80;;;6.60;99.90;;;;;;4949328;28;20043;-74
2024/01/27 11:22:06;;;;;;;12.93;3.80;;;6.70;99.90;;;;;;4968505;28;20041;-74
2024/01/27 11:24:31;;;;;;;10.05;3.28;;;6.70;99.90;;;;;;4965173;28;20031;-74
2024/01/27 11:27:01;;;;;;;12.60;3.88;;;6.80;99.90;;;;;;4948339;28;20039;-74
2024/01/27 11:29:29;;;;;;;20.70;4.05;;;6.80;99.90;;;;;;4968128;28;20025;-74
2024/01/27 11:31:55;;;;;;;13.13;3.28;;;6.90;99.90;;;;;;4962019;28;20031;-74
2024/01/27 11:34:21;;;;;;;10.73;3.20;;;7.00;99.90;;;;;;4958591;28;20058;-74
2024/01/27 11:36:47;;;;;;;15.25;4.05;;;7.10;99.90;;;;;;4966750;28;20069;-74
2024/01/27 11:39:26;;;;;;;9.68;2.83;;;7.20;99.90;;;;;;4951612;28;20142;-74
2024/01/27 11:41:52;;;;;;;15.95;3.33;;;7.30;99.90;;;;;;4948640;28;20530;-74
2024/01/27 11:44:18;;;;;;;10.50;3.13;;;7.30;99.90;;;;;;4957804;28;20133;-74
2024/01/27 11:46:45;;;;;;;14.88;4.20;;;7.30;99.90;;;;;;4966182;28;20105;-75
2024/01/27 11:49:16;;;;;;;14.32;3.30;;;7.20;99.90;;;;;;4967212;28;20074;-73
2024/01/27 11:51:41;;;;;;;15.50;2.72;;;7.20;99.90;;;;;;4971398;28;20387;-74
2024/01/27 11:54:07;;;;;;;21.05;4.60;;;7.20;99.90;;;;;;4966588;28;20031;-74
2024/01/27 11:56:32;;;;;;;11.05;2.05;;;7.20;99.90;;;;;;4978306;28;20027;-73
2024/01/27 11:58:58;;;;;;;19.45;3.20;;;7.20;99.90;;;;;;4958863;28;20044;-74
2024/01/27 12:01:24;;;;;;;7.93;2.15;;;7.30;99.90;;;;;;4946781;28;20042;-75
2024/01/27 12:03:50;;;;;;;13.68;2.35;;;7.30;99.90;;;;;;4971769;28;20495;-75
2024/01/27 12:06:15;;;;;;;8.05;2.47;;;7.30;99.90;;;;;;4949282;28;20039;-74
2024/01/27 12:08:46;;;;;;;12.18;2.67;;;7.30;99.90;;;;;;4952490;28;20077;-75
2024/01/27 12:11:13;;;;;;;12.13;2.10;;;7.30;99.90;;;;;;4969795;28;20096;-74
2024/01/27 12:13:39;;;;;;;7.75;3.17;;;7.30;99.90;;;;;;4948381;28;20042;-74
2024/01/27 12:16:05;;;;;;;8.98;2.67;;;7.30;99.90;;;;;;4975641;28;20557;-74
2024/01/27 12:18:31;;;;;;;12.73;2.72;;;7.30;99.90;;;;;;4965620;28;20042;-74
2024/01/27 12:20:57;;;;;;;14.40;2.55;;;7.30;99.90;;;;;;4974512;28;20197;-75
2024/01/27 12:23:23;;;;;;;8.60;1.83;;;7.30;99.90;;;;;;4947564;28;20042;-74
2024/01/27 12:25:55;;;;;;;10.65;2.97;;;7.40;99.90;;;;;;4970276;28;20046;-74
2024/01/27 12:28:23;;;;;;;12.45;3.25;;;7.40;99.90;;;;;;4970390;28;20034;-76
2024/01/27 12:30:53;;;;;;;12.63;2.75;;;7.40;99.90;;;;;;4949721;28;20406;-74
2024/01/27 12:33:22;;;;;;;18.83;4.25;;;7.50;99.90;;;;;;4949841;28;20031;-73
2024/01/27 12:35:49;;;;;;;11.67;2.50;;;7.50;99.90;;;;;;4965462;28;20047;-74
2024/01/27 12:38:14;;;;;;;14.32;3.17;;;7.40;99.90;;;;;;4967318;28;20038;-74
2024/01/27 12:40:40;;;;;;;10.32;2.28;;;7.40;99.90;;;;;;4947843;28;20042;-74
2024/01/27 12:43:06;;;;;;;10.68;2.15;;;7.40;99.90;;;;;;4966099;28;20031;-76